Time;durP1;ratioP1;P1;durP2;ratioP2;P2;SDS_P1;SDS_P2;PMS_P1;PMS_P2;Temp;Humidity;BMP_temperature;BMP_pressure;BME280_temperature;BME280_humidity;BME280_pressure;Samples;Min_cycle;Max_cycle;Signal;HPM_P1;HPM_P2
2023/09/13 00:01:00;;;;;;;12.03;11.07;;;;;;;;;;4975693;28;20482;-66
2023/09/13 00:03:26;;;;;;;16.10;10.77;;;;;;;;;;4976495;28;20894;-66
2023/09/13 00:05:52;;;;;;;15.53;11.37;;;;;;;;;;4976588;28;20416;-66
2023/09/13 00:08:18;;;;;;;11.50;10.40;;;;;;;;;;4976841;28;20429;-66
2023/09/13 00:10:46;;;;;;;15.60;10.67;;;;;;;;;;4976551;28;20821;-66
2023/09/13 00:13:15;;;;;;;11.97;11.00;;;;;;;;;;4976205;28;20414;-66
2023/09/13 00:15:43;;;;;;;13.97;11.27;;;;;;;;;;4976257;28;21036;-66
2023/09/13 00:18:11;;;;;;;12.23;10.53;;;;;;;;;;4976179;28;20908;-66
2023/09/13 00:20:38;;;;;;;11.77;10.60;;;;;;;;;;4976113;28;20520;-66
2023/09/13 00:23:05;;;;;;;10.80;9.80;;;;;;;;;;4975940;28;20498;-66
2023/09/13 00:25:31;;;;;;;12.17;9.17;;;;;;;;;;4976057;28;20981;-66
2023/09/13 00:27:57;;;;;;;9.93;9.03;;;;;;;;;;4975884;28;20424;-66
2023/09/13 00:30:23;;;;;;;10.13;9.23;;;;;;;;;;4975919;28;20484;-66
2023/09/13 00:32:49;;;;;;;9.83;9.10;;;;;;;;;;4975996;28;20398;-66
2023/09/13 00:35:15;;;;;;;9.73;8.83;;;;;;;;;;4976293;28;20897;-66
2023/09/13 00:37:44;;;;;;;8.67;7.27;;;;;;;;;;4976023;28;20418;-66
2023/09/13 00:40:10;;;;;;;10.20;7.40;;;;;;;;;;4974556;28;20461;-66
2023/09/13 00:42:39;;;;;;;11.87;7.87;;;;;;;;;;4975835;28;20450;-66
2023/09/13 00:45:05;;;;;;;8.67;7.30;;;;;;;;;;4975801;28;20436;-66
2023/09/13 00:47:31;;;;;;;7.70;6.97;;;;;;;;;;4975132;28;20444;-66
2023/09/13 00:49:59;;;;;;;7.63;5.80;;;;;;;;;;4974318;28;20471;-66
2023/09/13 00:52:25;;;;;;;6.20;5.70;;;;;;;;;;4975708;28;20454;-66
2023/09/13 00:54:53;;;;;;;8.03;5.93;;;;;;;;;;4975791;28;20777;-65
2023/09/13 00:57:20;;;;;;;5.43;5.10;;;;;;;;;;4975482;28;20408;-65
2023/09/13 00:59:45;;;;;;;4.90;4.50;;;;;;;;;;4975522;28;20411;-65
2023/09/13 01:02:12;;;;;;;8.30;5.83;;;;;;;;;;4975442;28;20912;-66
2023/09/13 01:04:38;;;;;;;7.20;5.93;;;;;;;;;;4975265;28;20808;-66
2023/09/13 01:07:05;;;;;;;5.93;5.63;;;;;;;;;;4975432;28;20502;-66
2023/09/13 01:09:31;;;;;;;6.10;5.70;;;;;;;;;;4975349;28;20438;-66
2023/09/13 01:11:57;;;;;;;6.07;5.50;;;;;;;;;;4975278;28;20795;-66
2023/09/13 01:14:23;;;;;;;6.57;6.17;;;;;;;;;;4975188;28;20417;-66
2023/09/13 01:16:58;;;;;;;7.57;6.80;;;;;;;;;;4975159;28;20437;-66
2023/09/13 01:19:42;;;;;;;6.10;5.60;;;;;;;;;;4975096;28;20972;-65
2023/09/13 01:22:17;;;;;;;6.47;5.87;;;;;;;;;;4975053;28;20405;-65
2023/09/13 01:24:57;;;;;;;7.03;5.63;;;;;;;;;;4975235;28;20400;-65
2023/09/13 01:27:28;;;;;;;7.80;6.90;;;;;;;;;;4975021;28;20998;-66
2023/09/13 01:29:57;;;;;;;6.50;5.97;;;;;;;;;;4974761;28;20861;-66
2023/09/13 01:32:23;;;;;;;6.40;6.10;;;;;;;;;;4974738;28;20472;-66
2023/09/13 01:34:49;;;;;;;6.83;6.13;;;;;;;;;;4974787;28;20447;-66
2023/09/13 01:37:15;;;;;;;7.13;6.53;;;;;;;;;;4974804;28;20441;-66
2023/09/13 01:39:43;;;;;;;11.70;6.33;;;;;;;;;;4974831;28;20457;-66
2023/09/13 01:42:11;;;;;;;7.63;7.00;;;;;;;;;;4974686;28;20507;-66
2023/09/13 01:44:40;;;;;;;8.43;6.83;;;;;;;;;;4974587;28;20428;-66
2023/09/13 01:47:09;;;;;;;11.50;8.00;;;;;;;;;;4974496;28;20444;-66
2023/09/13 01:49:36;;;;;;;7.00;6.57;;;;;;;;;;4974396;28;20935;-66
2023/09/13 01:52:05;;;;;;;8.13;7.00;;;;;;;;;;4974962;28;20433;-66
2023/09/13 01:54:34;;;;;;;12.10;7.37;;;;;;;;;;4974431;28;20433;-66
2023/09/13 01:57:03;;;;;;;10.03;7.67;;;;;;;;;;4974553;28;20404;-66
2023/09/13 01:59:29;;;;;;;7.43;6.83;;;;;;;;;;4972937;28;20420;-66
2023/09/13 02:01:55;;;;;;;7.00;6.47;;;;;;;;;;4974414;28;20910;-66
2023/09/13 02:04:24;;;;;;;7.23;6.53;;;;;;;;;;4974361;28;20416;-66
2023/09/13 02:06:53;;;;;;;9.90;7.47;;;;;;;;;;4974337;28;20417;-65
2023/09/13 02:09:21;;;;;;;7.20;6.70;;;;;;;;;;4974253;28;20412;-65
2023/09/13 02:11:47;;;;;;;6.73;5.97;;;;;;;;;;4973903;28;20562;-65
2023/09/13 02:14:13;;;;;;;7.90;6.57;;;;;;;;;;4974213;28;20448;-65
2023/09/13 02:16:39;;;;;;;7.33;6.60;;;;;;;;;;4974028;28;20445;-66
2023/09/13 02:19:05;;;;;;;8.20;7.30;;;;;;;;;;4972794;28;20461;-66
2023/09/13 02:21:32;;;;;;;6.53;6.13;;;;;;;;;;4973639;28;20454;-65
2023/09/13 02:24:02;;;;;;;6.00;5.60;;;;;;;;;;4973128;28;20881;-66
2023/09/13 02:26:28;;;;;;;6.20;5.80;;;;;;;;;;4972976;28;20428;-66
2023/09/13 02:28:54;;;;;;;6.17;5.80;;;;;;;;;;4972956;28;20452;-66
2023/09/13 02:31:24;;;;;;;5.77;5.37;;;;;;;;;;4972727;28;20555;-66
2023/09/13 02:33:50;;;;;;;5.87;5.47;;;;;;;;;;4973855;28;20450;-65
2023/09/13 02:36:16;;;;;;;5.43;5.03;;;;;;;;;;4973847;28;20423;-65
2023/09/13 02:38:45;;;;;;;5.10;4.70;;;;;;;;;;4972338;28;20502;-65
2023/09/13 02:41:13;;;;;;;10.10;5.70;;;;;;;;;;4973866;28;20869;-65
2023/09/13 02:43:43;;;;;;;8.30;5.30;;;;;;;;;;4973614;28;20436;-65
2023/09/13 02:46:08;;;;;;;5.23;4.83;;;;;;;;;;4973881;28;20422;-65
2023/09/13 02:48:35;;;;;;;6.10;5.30;;;;;;;;;;4973481;28;20457;-65
2023/09/13 02:51:01;;;;;;;6.53;6.07;;;;;;;;;;4973438;28;20471;-65
2023/09/13 02:53:30;;;;;;;6.13;5.73;;;;;;;;;;4973540;28;20955;-65
2023/09/13 02:56:04;;;;;;;6.73;6.20;;;;;;;;;;4973845;28;20438;-66
2023/09/13 02:58:30;;;;;;;6.93;6.03;;;;;;;;;;4973513;28;20760;-66
2023/09/13 03:00:57;;;;;;;8.07;6.40;;;;;;;;;;4973489;28;20531;-66
2023/09/13 03:03:25;;;;;;;6.70;6.10;;;;;;;;;;4973254;28;20415;-66
2023/09/13 03:05:51;;;;;;;7.10;6.40;;;;;;;;;;4973306;28;20440;-66
2023/09/13 03:08:19;;;;;;;7.30;6.60;;;;;;;;;;4972112;28;20471;-65
2023/09/13 03:10:45;;;;;;;14.53;13.03;;;;;;;;;;4973272;28;20960;-65
2023/09/13 03:13:11;;;;;;;7.63;6.90;;;;;;;;;;4973433;28;20429;-65
2023/09/13 03:15:37;;;;;;;8.03;7.40;;;;;;;;;;4973406;28;20411;-65
2023/09/13 03:18:03;;;;;;;7.47;6.90;;;;;;;;;;4972035;28;20422;-66
2023/09/13 03:20:29;;;;;;;7.40;6.60;;;;;;;;;;4973236;28;20516;-65
2023/09/13 03:22:58;;;;;;;7.73;7.13;;;;;;;;;;4973200;28;20588;-65
2023/09/13 03:25:24;;;;;;;8.30;7.00;;;;;;;;;;4973314;28;20421;-65
2023/09/13 03:27:49;;;;;;;14.77;7.50;;;;;;;;;;4973025;28;20792;-65
2023/09/13 03:30:16;;;;;;;11.47;7.80;;;;;;;;;;4973059;28;20477;-65
2023/09/13 03:32:42;;;;;;;7.20;6.33;;;;;;;;;;4971896;28;20418;-65
2023/09/13 03:35:10;;;;;;;13.93;6.60;;;;;;;;;;4974663;28;20800;-65
2023/09/13 03:37:36;;;;;;;7.87;7.17;;;;;;;;;;4977095;28;20426;-65
2023/09/13 03:40:05;;;;;;;6.90;6.17;;;;;;;;;;4976915;28;20635;-66
2023/09/13 03:42:31;;;;;;;8.63;6.47;;;;;;;;;;4976929;28;20432;-66
2023/09/13 03:44:57;;;;;;;7.43;6.73;;;;;;;;;;4976536;28;20954;-66
2023/09/13 03:47:23;;;;;;;9.43;7.23;;;;;;;;;;4976850;28;20437;-66
2023/09/13 03:49:49;;;;;;;7.70;6.87;;;;;;;;;;4976622;28;20468;-66
2023/09/13 03:52:14;;;;;;;13.90;7.67;;;;;;;;;;4976909;28;20474;-65
2023/09/13 03:54:43;;;;;;;7.93;7.30;;;;;;;;;;4975618;28;20426;-66
2023/09/13 03:57:11;;;;;;;8.00;7.43;;;;;;;;;;4976644;28;20479;-66
2023/09/13 03:59:37;;;;;;;10.70;7.20;;;;;;;;;;4976687;28;20426;-66
2023/09/13 04:02:03;;;;;;;9.60;6.90;;;;;;;;;;4976481;28;20796;-66
2023/09/13 04:04:32;;;;;;;7.73;7.17;;;;;;;;;;4976451;28;20958;-66
2023/09/13 04:06:58;;;;;;;7.50;7.00;;;;;;;;;;4976530;28;20428;-66
2023/09/13 04:09:23;;;;;;;7.13;6.60;;;;;;;;;;4976640;28;20420;-66
2023/09/13 04:11:50;;;;;;;7.90;7.30;;;;;;;;;;4976279;28;20478;-66
2023/09/13 04:14:16;;;;;;;8.27;7.13;;;;;;;;;;4976398;28;20919;-66
2023/09/13 04:16:42;;;;;;;8.67;7.13;;;;;;;;;;4976314;28;20512;-66
2023/09/13 04:19:10;;;;;;;8.10;7.40;;;;;;;;;;4976275;28;20907;-66
2023/09/13 04:21:38;;;;;;;11.53;7.73;;;;;;;;;;4976155;28;20479;-66
2023/09/13 04:24:04;;;;;;;12.90;7.93;;;;;;;;;;4974603;28;20462;-66
2023/09/13 04:26:30;;;;;;;8.37;7.53;;;;;;;;;;4976009;28;20431;-66
2023/09/13 04:28:59;;;;;;;9.57;8.40;;;;;;;;;;4975918;28;20427;-66
2023/09/13 04:31:25;;;;;;;10.60;8.30;;;;;;;;;;4976223;28;21064;-66
2023/09/13 04:33:54;;;;;;;7.60;7.00;;;;;;;;;;4974985;28;20511;-66
2023/09/13 04:36:20;;;;;;;11.60;7.00;;;;;;;;;;4976288;28;20438;-66
2023/09/13 04:38:49;;;;;;;8.20;7.20;;;;;;;;;;4976002;28;20415;-65
2023/09/13 04:41:15;;;;;;;9.67;6.80;;;;;;;;;;4975887;28;20489;-65
2023/09/13 04:43:44;;;;;;;6.13;5.73;;;;;;;;;;4975992;28;20427;-65
2023/09/13 04:46:10;;;;;;;9.53;7.17;;;;;;;;;;4975367;28;20419;-65
2023/09/13 04:48:38;;;;;;;6.93;6.50;;;;;;;;;;4975807;28;20907;-65
2023/09/13 04:51:04;;;;;;;5.77;5.13;;;;;;;;;;4975490;28;20471;-65
2023/09/13 04:53:31;;;;;;;5.93;5.30;;;;;;;;;;4975803;28;20445;-65
2023/09/13 04:56:00;;;;;;;5.77;5.13;;;;;;;;;;4975725;28;20878;-65
2023/09/13 04:58:27;;;;;;;5.10;4.70;;;;;;;;;;4975835;28;20476;-65
2023/09/13 05:00:53;;;;;;;5.80;5.30;;;;;;;;;;4975338;28;20489;-65
2023/09/13 05:03:19;;;;;;;5.87;5.00;;;;;;;;;;4975656;28;20419;-65
2023/09/13 05:05:45;;;;;;;6.43;4.80;;;;;;;;;;4975680;28;20774;-65
2023/09/13 05:08:10;;;;;;;5.93;5.00;;;;;;;;;;4975253;28;20522;-65
2023/09/13 05:10:39;;;;;;;5.00;4.70;;;;;;;;;;4975412;28;20492;-65
2023/09/13 05:13:05;;;;;;;6.30;5.73;;;;;;;;;;4975380;28;20411;-65
2023/09/13 05:15:31;;;;;;;5.40;5.10;;;;;;;;;;4975377;28;20833;-65
2023/09/13 05:17:57;;;;;;;5.67;4.90;;;;;;;;;;4975154;28;20518;-65
2023/09/13 05:20:24;;;;;;;9.50;5.57;;;;;;;;;;4975187;28;20436;-65
2023/09/13 05:22:50;;;;;;;6.30;4.90;;;;;;;;;;4975510;28;20419;-65
2023/09/13 05:25:16;;;;;;;6.40;5.40;;;;;;;;;;4975088;28;20803;-65
2023/09/13 05:27:42;;;;;;;4.60;4.40;;;;;;;;;;4975276;28;20477;-65
2023/09/13 05:30:10;;;;;;;4.60;4.40;;;;;;;;;;4974947;28;20475;-65
2023/09/13 05:32:36;;;;;;;8.33;5.13;;;;;;;;;;4975180;28;20518;-64
2023/09/13 05:35:03;;;;;;;5.73;5.27;;;;;;;;;;4975221;28;20427;-64
2023/09/13 05:37:31;;;;;;;5.00;4.60;;;;;;;;;;4974796;28;20446;-64
2023/09/13 05:39:59;;;;;;;4.53;4.30;;;;;;;;;;4974950;28;20967;-65
2023/09/13 05:42:25;;;;;;;5.13;4.83;;;;;;;;;;4974872;28;20444;-64
2023/09/13 05:44:51;;;;;;;5.40;4.90;;;;;;;;;;4975041;28;20503;-64
2023/09/13 05:47:20;;;;;;;6.10;5.50;;;;;;;;;;4974698;28;20985;-64
2023/09/13 05:49:49;;;;;;;7.47;5.67;;;;;;;;;;4974624;28;20432;-64
2023/09/13 05:52:15;;;;;;;5.43;5.07;;;;;;;;;;4974624;28;20839;-64
2023/09/13 05:54:43;;;;;;;4.53;4.30;;;;;;;;;;4974495;28;20407;-64
2023/09/13 05:57:09;;;;;;;7.10;5.60;;;;;;;;;;4973800;28;20416;-64
2023/09/13 05:59:39;;;;;;;5.47;5.07;;;;;;;;;;4974314;28;20472;-65
2023/09/13 06:02:06;;;;;;;6.73;4.83;;;;;;;;;;4974514;28;20466;-65
2023/09/13 06:04:32;;;;;;;5.43;4.70;;;;;;;;;;4974560;28;20819;-65
2023/09/13 06:06:58;;;;;;;5.83;5.23;;;;;;;;;;4974566;28;20433;-65
2023/09/13 06:09:27;;;;;;;7.90;5.00;;;;;;;;;;4974307;28;20863;-65
2023/09/13 06:11:54;;;;;;;5.77;5.30;;;;;;;;;;4974194;28;20558;-65
2023/09/13 06:14:23;;;;;;;5.80;5.03;;;;;;;;;;4974074;28;20892;-65
2023/09/13 06:16:51;;;;;;;4.90;4.70;;;;;;;;;;4974122;28;20437;-65
2023/09/13 06:19:17;;;;;;;5.13;4.73;;;;;;;;;;4973839;28;20470;-65
2023/09/13 06:21:43;;;;;;;8.20;4.70;;;;;;;;;;4973879;28;20978;-65
2023/09/13 06:24:11;;;;;;;5.00;4.57;;;;;;;;;;4973838;28;20523;-65
2023/09/13 06:26:37;;;;;;;5.10;4.27;;;;;;;;;;4973881;28;20467;-65
2023/09/13 06:29:05;;;;;;;5.80;5.20;;;;;;;;;;4973836;28;20760;-65
2023/09/13 06:31:32;;;;;;;5.20;4.67;;;;;;;;;;4973764;28;20475;-65
2023/09/13 06:33:58;;;;;;;4.90;4.60;;;;;;;;;;4973747;28;20432;-65
2023/09/13 06:36:26;;;;;;;5.03;4.53;;;;;;;;;;4973784;28;20403;-65
2023/09/13 06:38:52;;;;;;;5.50;5.00;;;;;;;;;;4973703;28;20962;-65
2023/09/13 06:41:20;;;;;;;5.00;4.70;;;;;;;;;;4973800;28;20420;-65
2023/09/13 06:43:46;;;;;;;5.63;5.30;;;;;;;;;;4973624;28;20483;-64
2023/09/13 06:46:12;;;;;;;5.13;4.70;;;;;;;;;;4973217;28;20467;-65
2023/09/13 06:48:38;;;;;;;6.47;4.83;;;;;;;;;;4973469;28;20457;-65
2023/09/13 06:51:05;;;;;;;5.60;5.07;;;;;;;;;;4973662;28;20455;-65
2023/09/13 06:53:31;;;;;;;5.33;4.77;;;;;;;;;;4973469;28;20507;-65
2023/09/13 06:55:57;;;;;;;5.60;5.10;;;;;;;;;;4973358;28;20869;-65
2023/09/13 06:58:22;;;;;;;4.50;4.13;;;;;;;;;;4973423;28;20450;-65
2023/09/13 07:00:48;;;;;;;5.50;4.70;;;;;;;;;;4973401;28;20504;-65
2023/09/13 07:03:14;;;;;;;5.63;5.03;;;;;;;;;;4972105;28;20443;-65
2023/09/13 07:05:42;;;;;;;5.00;4.70;;;;;;;;;;4973450;28;20417;-65
2023/09/13 07:08:09;;;;;;;6.80;4.70;;;;;;;;;;4973288;28;20426;-65
2023/09/13 07:10:35;;;;;;;7.47;4.67;;;;;;;;;;4973565;28;20472;-65
2023/09/13 07:13:02;;;;;;;4.73;4.43;;;;;;;;;;4973450;28;20789;-65
2023/09/13 07:15:28;;;;;;;5.10;4.77;;;;;;;;;;4973355;28;20429;-65
2023/09/13 07:17:54;;;;;;;8.93;4.83;;;;;;;;;;4973242;28;20409;-65
2023/09/13 07:20:21;;;;;;;5.10;4.80;;;;;;;;;;4973274;28;20433;-65
2023/09/13 07:22:47;;;;;;;5.23;4.73;;;;;;;;;;4973358;28;20532;-65
2023/09/13 07:25:13;;;;;;;6.20;4.90;;;;;;;;;;4973304;28;20539;-62
2023/09/13 07:27:39;;;;;;;5.63;5.20;;;;;;;;;;4973108;28;20580;-62
2023/09/13 07:30:10;;;;;;;8.60;4.97;;;;;;;;;;4973140;28;20519;-62
2023/09/13 07:32:41;;;;;;;5.37;5.03;;;;;;;;;;4973046;28;20431;-62
2023/09/13 07:35:07;;;;;;;4.90;4.60;;;;;;;;;;4973348;28;20429;-62
2023/09/13 07:37:36;;;;;;;5.63;5.23;;;;;;;;;;4973182;28;20463;-63
2023/09/13 07:40:04;;;;;;;4.90;4.70;;;;;;;;;;4972847;28;20444;-63
2023/09/13 07:42:33;;;;;;;6.33;4.60;;;;;;;;;;4973002;28;20440;-63
2023/09/13 07:45:01;;;;;;;5.43;4.37;;;;;;;;;;4972763;28;20503;-63
2023/09/13 07:47:28;;;;;;;5.43;4.30;;;;;;;;;;4972819;28;20431;-63
2023/09/13 07:49:59;;;;;;;5.63;5.17;;;;;;;;;;4972705;28;20855;-63
2023/09/13 07:52:27;;;;;;;4.73;4.53;;;;;;;;;;4972837;28;20993;-63
2023/09/13 07:54:53;;;;;;;4.60;4.20;;;;;;;;;;4973349;28;20489;-63
2023/09/13 07:57:22;;;;;;;5.17;4.47;;;;;;;;;;4972701;28;20845;-63
2023/09/13 07:59:48;;;;;;;5.10;4.53;;;;;;;;;;4971488;28;20437;-63
2023/09/13 08:02:16;;;;;;;5.23;4.73;;;;;;;;;;4972904;28;20432;-63
2023/09/13 08:04:42;;;;;;;5.20;4.80;;;;;;;;;;4973087;28;20423;-63
2023/09/13 08:07:10;;;;;;;6.03;4.60;;;;;;;;;;4972827;28;20409;-63
2023/09/13 08:09:36;;;;;;;4.03;3.93;;;;;;;;;;4973126;28;20483;-63
2023/09/13 08:12:03;;;;;;;4.40;3.90;;;;;;;;;;4973120;28;20487;-63
2023/09/13 08:14:29;;;;;;;4.73;3.60;;;;;;;;;;4973152;28;20416;-63
2023/09/13 08:16:55;;;;;;;3.20;2.90;;;;;;;;;;4973129;28;20440;-63
2023/09/13 08:19:21;;;;;;;5.07;3.17;;;;;;;;;;4972636;28;20425;-63
2023/09/13 08:21:47;;;;;;;3.47;3.27;;;;;;;;;;4975523;28;20434;-63
2023/09/13 08:24:13;;;;;;;2.97;2.43;;;;;;;;;;4976623;28;20409;-63
2023/09/13 08:26:39;;;;;;;2.87;2.70;;;;;;;;;;4976485;28;21022;-63
2023/09/13 08:29:05;;;;;;;4.90;2.23;;;;;;;;;;4976430;28;20456;-63
2023/09/13 08:31:31;;;;;;;7.77;2.10;;;;;;;;;;4976345;28;20580;-63
2023/09/13 08:33:57;;;;;;;2.10;2.10;;;;;;;;;;4975226;28;20761;-63
2023/09/13 08:36:25;;;;;;;4.00;2.37;;;;;;;;;;4976322;28;20449;-63
2023/09/13 08:38:51;;;;;;;1.83;1.83;;;;;;;;;;4976339;28;20689;-63
2023/09/13 08:41:17;;;;;;;4.60;1.40;;;;;;;;;;4976368;28;20439;-63
2023/09/13 08:43:45;;;;;;;1.90;1.80;;;;;;;;;;4976373;28;20460;-63
2023/09/13 08:46:14;;;;;;;2.20;1.83;;;;;;;;;;4976140;28;20422;-63
2023/09/13 08:48:42;;;;;;;9.97;1.73;;;;;;;;;;4976181;28;20435;-63
2023/09/13 08:51:08;;;;;;;1.73;1.63;;;;;;;;;;4975977;28;20465;-63
2023/09/13 08:53:34;;;;;;;2.50;1.57;;;;;;;;;;4976071;28;20981;-63
2023/09/13 08:56:01;;;;;;;2.20;2.00;;;;;;;;;;4975854;28;20917;-63
2023/09/13 08:58:27;;;;;;;1.77;1.67;;;;;;;;;;4974924;28;20901;-63
2023/09/13 09:00:54;;;;;;;2.20;1.50;;;;;;;;;;4975743;28;20427;-63
2023/09/13 09:03:21;;;;;;;1.77;1.63;;;;;;;;;;4975874;28;20466;-63
2023/09/13 09:05:48;;;;;;;3.23;2.13;;;;;;;;;;4975996;28;20410;-63
2023/09/13 09:08:14;;;;;;;1.80;1.73;;;;;;;;;;4975648;28;20428;-63
2023/09/13 09:10:42;;;;;;;12.20;2.27;;;;;;;;;;4975676;28;20474;-63
2023/09/13 09:13:10;;;;;;;5.17;4.87;;;;;;;;;;4975665;28;20501;-63
2023/09/13 09:15:37;;;;;;;1.97;1.83;;;;;;;;;;4975745;28;20414;-63
2023/09/13 09:18:05;;;;;;;1.63;1.63;;;;;;;;;;4974198;28;20509;-63
2023/09/13 09:20:31;;;;;;;5.00;1.90;;;;;;;;;;4975480;28;20442;-63
2023/09/13 09:23:00;;;;;;;2.40;2.20;;;;;;;;;;4975635;28;20425;-63
2023/09/13 09:25:28;;;;;;;2.70;2.30;;;;;;;;;;4974359;28;20427;-63
2023/09/13 09:27:54;;;;;;;1.87;1.63;;;;;;;;;;4974105;28;20951;-63
2023/09/13 09:30:31;;;;;;;4.90;4.53;;;;;;;;;;4975346;28;20473;-63
2023/09/13 09:33:04;;;;;;;3.80;2.50;;;;;;;;;;4972866;28;20842;-63
2023/09/13 09:35:31;;;;;;;2.73;2.53;;;;;;;;;;4975269;28;20470;-63
2023/09/13 09:37:57;;;;;;;3.60;3.40;;;;;;;;;;4975317;28;20437;-63
2023/09/13 09:40:23;;;;;;;3.40;3.30;;;;;;;;;;4973581;28;20472;-62
2023/09/13 09:42:55;;;;;;;3.60;3.40;;;;;;;;;;4975150;28;20444;-62
2023/09/13 09:45:26;;;;;;;5.13;4.00;;;;;;;;;;4973840;28;20453;-63
2023/09/13 09:47:53;;;;;;;4.20;3.90;;;;;;;;;;4975082;28;20501;-63
2023/09/13 09:50:22;;;;;;;4.20;3.90;;;;;;;;;;4974958;28;20470;-63
2023/09/13 09:52:49;;;;;;;6.00;4.80;;;;;;;;;;4974892;28;20415;-63
2023/09/13 09:55:16;;;;;;;4.97;3.23;;;;;;;;;;4974945;28;20776;-63
2023/09/13 09:57:48;;;;;;;4.20;3.80;;;;;;;;;;4975129;28;20417;-63
2023/09/13 10:00:15;;;;;;;3.53;3.33;;;;;;;;;;4975715;28;20465;-63
2023/09/13 10:02:43;;;;;;;3.67;3.47;;;;;;;;;;4975270;28;20449;-63
2023/09/13 10:05:13;;;;;;;6.33;3.97;;;;;;;;;;4974961;28;20425;-63
2023/09/13 10:07:49;;;;;;;3.37;3.27;;;;;;;;;;4974721;28;20835;-63
2023/09/13 10:10:38;;;;;;;3.50;3.40;;;;;;;;;;4974712;28;20526;-63
2023/09/13 10:13:07;;;;;;;5.17;3.13;;;;;;;;;;4974608;28;20450;-63
2023/09/13 10:15:35;;;;;;;4.23;3.90;;;;;;;;;;4974503;28;20408;-63
2023/09/13 10:18:04;;;;;;;4.37;3.90;;;;;;;;;;4974659;28;20439;-64
2023/09/13 10:20:34;;;;;;;5.00;3.73;;;;;;;;;;4974121;28;20888;-63
2023/09/13 10:23:01;;;;;;;3.83;3.40;;;;;;;;;;4974172;28;20916;-63
2023/09/13 10:25:30;;;;;;;4.10;3.80;;;;;;;;;;4972722;28;20791;-63
2023/09/13 10:28:01;;;;;;;3.83;3.53;;;;;;;;;;4974556;28;20860;-63
2023/09/13 10:30:28;;;;;;;3.40;3.20;;;;;;;;;;4974301;28;20460;-63
2023/09/13 10:33:04;;;;;;;3.07;2.90;;;;;;;;;;4973059;28;20776;-63
2023/09/13 10:35:35;;;;;;;5.80;2.97;;;;;;;;;;4974467;28;20416;-63
2023/09/13 10:38:00;;;;;;;2.77;2.50;;;;;;;;;;4974333;28;20807;-63
2023/09/13 10:40:27;;;;;;;2.50;2.33;;;;;;;;;;4974154;28;20402;-63
2023/09/13 10:42:53;;;;;;;2.43;2.33;;;;;;;;;;4973857;28;20444;-64
2023/09/13 10:45:22;;;;;;;2.53;2.30;;;;;;;;;;4973796;28;20428;-64
2023/09/13 10:47:48;;;;;;;1.83;1.83;;;;;;;;;;4973965;28;20453;-63
2023/09/13 10:50:15;;;;;;;9.07;8.23;;;;;;;;;;4974018;28;20981;-63
2023/09/13 10:52:42;;;;;;;4.67;4.37;;;;;;;;;;4973768;28;20440;-63
2023/09/13 10:55:09;;;;;;;3.30;3.00;;;;;;;;;;4973953;28;20433;-63
2023/09/13 10:57:37;;;;;;;2.20;2.20;;;;;;;;;;4973904;28;20439;-63
2023/09/13 11:00:13;;;;;;;1.90;1.90;;;;;;;;;;4974165;28;20428;-63
2023/09/13 11:02:42;;;;;;;1.90;1.90;;;;;;;;;;4973719;28;20441;-63
2023/09/13 11:05:08;;;;;;;2.50;2.20;;;;;;;;;;4973741;28;20557;-63
2023/09/13 11:07:40;;;;;;;2.77;2.67;;;;;;;;;;4973551;28;20419;-63
2023/09/13 11:10:06;;;;;;;2.60;2.37;;;;;;;;;;4973598;28;20463;-63
2023/09/13 11:12:36;;;;;;;2.50;2.30;;;;;;;;;;4973490;28;20429;-63
2023/09/13 11:15:12;;;;;;;2.63;2.43;;;;;;;;;;4973483;28;20418;-63
2023/09/13 11:17:39;;;;;;;2.57;2.40;;;;;;;;;;4973535;28;20422;-62
2023/09/13 11:20:20;;;;;;;2.57;2.40;;;;;;;;;;4973664;28;20410;-62
2023/09/13 11:23:00;;;;;;;2.60;2.50;;;;;;;;;;4973708;28;20418;-62
2023/09/13 11:25:30;;;;;;;3.07;2.87;;;;;;;;;;4974057;28;20880;-63
2023/09/13 11:27:57;;;;;;;2.90;2.80;;;;;;;;;;4973409;28;20445;-62
2023/09/13 11:30:42;;;;;;;7.80;3.00;;;;;;;;;;4973464;28;20561;-62
2023/09/13 11:33:08;;;;;;;3.00;2.90;;;;;;;;;;4973332;28;20421;-62
2023/09/13 11:35:35;;;;;;;7.10;4.30;;;;;;;;;;4973612;28;20599;-62
2023/09/13 11:38:01;;;;;;;5.97;5.27;;;;;;;;;;4972293;28;20421;-62
2023/09/13 11:40:27;;;;;;;10.10;5.80;;;;;;;;;;4973818;28;20510;-62
2023/09/13 11:42:56;;;;;;;18.70;9.87;;;;;;;;;;4972325;28;20803;-63
2023/09/13 11:45:22;;;;;;;8.90;8.00;;;;;;;;;;4973724;28;20427;-63
2023/09/13 11:47:50;;;;;;;6.70;6.10;;;;;;;;;;4973288;28;20480;-63
2023/09/13 11:50:17;;;;;;;9.70;8.90;;;;;;;;;;4972112;28;20479;-62
2023/09/13 11:53:01;;;;;;;3.87;3.73;;;;;;;;;;4973417;28;20421;-63
2023/09/13 11:55:27;;;;;;;3.10;3.10;;;;;;;;;;4974615;28;20397;-64
2023/09/13 11:57:54;;;;;;;4.57;4.17;;;;;;;;;;4977452;28;20550;-64
2023/09/13 12:00:25;;;;;;;4.37;4.17;;;;;;;;;;4977742;28;20908;-64
2023/09/13 12:02:51;;;;;;;3.57;3.47;;;;;;;;;;4977188;28;20423;-63
2023/09/13 12:05:20;;;;;;;3.47;3.37;;;;;;;;;;4976893;28;20504;-64
2023/09/13 12:07:46;;;;;;;2.83;2.73;;;;;;;;;;4976948;28;20439;-64
2023/09/13 12:10:12;;;;;;;3.17;3.07;;;;;;;;;;4976426;28;20459;-64
2023/09/13 12:12:41;;;;;;;3.57;3.40;;;;;;;;;;4976850;28;20478;-64
2023/09/13 12:15:14;;;;;;;3.27;3.00;;;;;;;;;;4976688;28;20944;-65
2023/09/13 12:17:42;;;;;;;4.03;3.93;;;;;;;;;;4976794;28;20398;-64
2023/09/13 12:20:10;;;;;;;3.27;3.07;;;;;;;;;;4976948;28;20441;-64
2023/09/13 12:22:42;;;;;;;5.43;3.83;;;;;;;;;;4976826;28;20895;-64
2023/09/13 12:25:12;;;;;;;3.90;3.67;;;;;;;;;;4976348;28;20439;-64
2023/09/13 12:27:38;;;;;;;3.27;3.27;;;;;;;;;;4976784;28;20413;-63
2023/09/13 12:30:07;;;;;;;4.43;4.20;;;;;;;;;;4976287;28;20418;-63
2023/09/13 12:32:33;;;;;;;4.40;4.20;;;;;;;;;;4976424;28;20410;-63
2023/09/13 12:35:00;;;;;;;4.93;4.27;;;;;;;;;;4975932;28;20879;-64
2023/09/13 12:37:26;;;;;;;3.87;3.67;;;;;;;;;;4975182;28;20432;-63
2023/09/13 12:39:52;;;;;;;3.87;3.77;;;;;;;;;;4976179;28;20440;-63
2023/09/13 12:42:18;;;;;;;4.53;4.33;;;;;;;;;;4976364;28;20410;-63
2023/09/13 12:44:47;;;;;;;4.30;4.10;;;;;;;;;;4976055;28;20420;-63
2023/09/13 12:47:17;;;;;;;4.30;4.20;;;;;;;;;;4975500;28;20451;-63
2023/09/13 12:49:46;;;;;;;4.30;4.10;;;;;;;;;;4974889;28;20441;-63
2023/09/13 12:52:12;;;;;;;4.23;4.03;;;;;;;;;;4975675;28;20505;-63
2023/09/13 12:54:40;;;;;;;5.13;4.63;;;;;;;;;;4976063;28;20434;-64
2023/09/13 12:57:06;;;;;;;6.17;5.57;;;;;;;;;;4976048;28;20422;-64
2023/09/13 12:59:42;;;;;;;4.80;4.20;;;;;;;;;;4976034;28;20435;-64
2023/09/13 13:02:12;;;;;;;4.07;3.80;;;;;;;;;;4975952;28;20418;-64
2023/09/13 13:04:41;;;;;;;3.40;3.30;;;;;;;;;;4975640;28;20442;-64
2023/09/13 13:07:07;;;;;;;5.00;4.80;;;;;;;;;;4975481;28;20894;-63
2023/09/13 13:09:33;;;;;;;4.00;3.87;;;;;;;;;;4975634;28;20446;-64
2023/09/13 13:12:02;;;;;;;11.43;10.33;;;;;;;;;;4974280;28;20470;-64
2023/09/13 13:14:29;;;;;;;13.13;11.90;;;;;;;;;;4976044;28;20802;-64
2023/09/13 13:16:58;;;;;;;6.10;5.80;;;;;;;;;;4975711;28;20461;-64
2023/09/13 13:19:32;;;;;;;4.47;4.03;;;;;;;;;;4974235;28;20420;-64
2023/09/13 13:21:58;;;;;;;3.90;3.70;;;;;;;;;;4974322;28;20440;-63
2023/09/13 13:24:25;;;;;;;4.50;4.13;;;;;;;;;;4975783;28;20904;-63
2023/09/13 13:26:51;;;;;;;4.27;3.93;;;;;;;;;;4976029;28;20486;-63
2023/09/13 13:29:17;;;;;;;4.40;4.20;;;;;;;;;;4975335;28;20427;-63
2023/09/13 13:31:43;;;;;;;3.60;3.50;;;;;;;;;;4975121;28;20528;-63
2023/09/13 13:34:09;;;;;;;4.17;4.07;;;;;;;;;;4975313;28;20406;-63
2023/09/13 13:36:35;;;;;;;3.47;3.37;;;;;;;;;;4975581;28;20496;-63
2023/09/13 13:39:05;;;;;;;3.43;3.23;;;;;;;;;;4975216;28;20411;-63
2023/09/13 13:41:34;;;;;;;3.67;3.37;;;;;;;;;;4975139;28;20423;-63
2023/09/13 13:44:02;;;;;;;3.20;3.20;;;;;;;;;;4975046;28;20846;-63
2023/09/13 13:46:28;;;;;;;3.50;3.43;;;;;;;;;;4974941;28;20785;-63
2023/09/13 13:48:54;;;;;;;3.67;3.53;;;;;;;;;;4975121;28;20442;-63
2023/09/13 13:51:20;;;;;;;3.33;3.23;;;;;;;;;;4974780;28;20528;-63
2023/09/13 13:53:46;;;;;;;3.47;3.27;;;;;;;;;;4975021;28;20450;-63
2023/09/13 13:56:15;;;;;;;7.73;3.60;;;;;;;;;;4974871;28;20913;-63
2023/09/13 13:58:43;;;;;;;9.67;8.77;;;;;;;;;;4974795;28;20417;-63
2023/09/13 14:01:09;;;;;;;3.80;3.60;;;;;;;;;;4974707;28;20447;-63
2023/09/13 14:03:35;;;;;;;3.53;3.33;;;;;;;;;;4973716;28;20827;-63
2023/09/13 14:06:03;;;;;;;3.43;3.33;;;;;;;;;;4974798;28;20452;-63
2023/09/13 14:08:29;;;;;;;5.90;3.77;;;;;;;;;;4974703;28;20414;-63
2023/09/13 14:10:55;;;;;;;2.93;2.83;;;;;;;;;;4973168;28;20474;-63
2023/09/13 14:13:22;;;;;;;7.90;3.30;;;;;;;;;;4974597;28;20394;-63
2023/09/13 14:15:48;;;;;;;3.50;3.33;;;;;;;;;;4974573;28;20441;-63
2023/09/13 14:18:14;;;;;;;5.03;3.27;;;;;;;;;;4973848;28;20866;-63
2023/09/13 14:20:44;;;;;;;3.00;2.87;;;;;;;;;;4974535;28;20470;-63
2023/09/13 14:23:13;;;;;;;2.60;2.50;;;;;;;;;;4974478;28;20434;-63
2023/09/13 14:25:40;;;;;;;3.10;2.83;;;;;;;;;;4974347;28;20457;-63
2023/09/13 14:28:06;;;;;;;3.03;2.83;;;;;;;;;;4974386;28;20980;-64
2023/09/13 14:30:32;;;;;;;3.10;3.00;;;;;;;;;;4974133;28;20469;-63
2023/09/13 14:32:58;;;;;;;3.13;2.97;;;;;;;;;;4974371;28;20447;-63
2023/09/13 14:35:27;;;;;;;3.43;3.33;;;;;;;;;;4974220;28;20491;-63
2023/09/13 14:37:53;;;;;;;3.20;3.00;;;;;;;;;;4974227;28;20965;-63
2023/09/13 14:40:20;;;;;;;2.70;2.50;;;;;;;;;;4974087;28;20899;-63
2023/09/13 14:42:46;;;;;;;3.10;3.00;;;;;;;;;;4974216;28;20422;-63